Time;durP1;ratioP1;P1;durP2;ratioP2;P2;SDS_P1;SDS_P2;PMS_P1;PMS_P2;Temp;Humidity;BMP_temperature;BMP_pressure;BME280_temperature;BME280_humidity;BME280_pressure;Samples;Min_cycle;Max_cycle;Signal;HPM_P1;HPM_P2
2023/12/05 00:01:34;;;;;;;15.73;8.27;;;;;;;-2.36;100.00;100760.50;4901282;29;20466;-69
2023/12/05 00:04:00;;;;;;;15.68;8.23;;;;;;;-2.35;100.00;100741.16;4884258;29;20042;-71
2023/12/05 00:06:26;;;;;;;16.38;7.88;;;;;;;-2.35;100.00;100746.41;4897958;29;20585;-68
2023/12/05 00:08:52;;;;;;;16.83;8.05;;;;;;;-2.34;100.00;100748.03;4908857;29;20036;-69
2023/12/05 00:11:17;;;;;;;14.63;8.30;;;;;;;-2.36;100.00;100739.53;4886927;29;20036;-69
2023/12/05 00:13:43;;;;;;;15.13;7.65;;;;;;;-2.43;100.00;100739.47;4885174;29;20102;-69
2023/12/05 00:16:09;;;;;;;17.17;8.70;;;;;;;-2.39;100.00;100740.69;4906658;29;20483;-69
2023/12/05 00:18:36;;;;;;;16.48;8.27;;;;;;;-2.37;100.00;100735.25;4907361;29;20035;-69
2023/12/05 00:21:02;;;;;;;15.68;8.30;;;;;;;-2.38;100.00;100731.03;4906335;29;20036;-68
2023/12/05 00:23:28;;;;;;;15.63;8.45;;;;;;;-2.37;100.00;100722.16;4886992;29;20032;-68
2023/12/05 00:25:54;;;;;;;13.95;7.90;;;;;;;-2.36;100.00;100718.56;4888913;29;20059;-69
2023/12/05 00:28:20;;;;;;;14.10;7.95;;;;;;;-2.39;100.00;100724.16;4901620;29;20499;-68
2023/12/05 00:30:45;;;;;;;15.32;8.10;;;;;;;-2.41;100.00;100715.66;4892293;29;20048;-68
2023/12/05 00:33:11;;;;;;;16.30;8.25;;;;;;;-2.40;100.00;100712.03;4906207;29;20036;-69
2023/12/05 00:35:36;;;;;;;15.07;8.82;;;;;;;-2.43;100.00;100713.22;4905384;29;20032;-70
2023/12/05 00:38:02;;;;;;;14.52;7.45;;;;;;;-2.41;100.00;100707.78;4887909;29;20039;-68
2023/12/05 00:40:29;;;;;;;13.13;7.82;;;;;;;-2.41;100.00;100710.41;4879521;29;20513;-68
2023/12/05 00:42:56;;;;;;;15.27;7.72;;;;;;;-2.43;100.00;100708.00;4912894;29;20044;-69
2023/12/05 00:45:22;;;;;;;14.93;8.27;;;;;;;-2.42;100.00;100703.56;4892625;29;20668;-69
2023/12/05 00:47:50;;;;;;;15.55;8.68;;;;;;;-2.41;100.00;100700.75;4888616;29;20091;-69
2023/12/05 00:50:16;;;;;;;15.15;7.70;;;;;;;-2.42;100.00;100703.56;4905773;29;20074;-69
2023/12/05 00:52:42;;;;;;;14.45;8.25;;;;;;;-2.44;100.00;100705.53;4896846;29;20136;-69
2023/12/05 00:55:08;;;;;;;13.45;7.32;;;;;;;-2.43;100.00;100708.00;4906988;29;20091;-69
2023/12/05 00:57:34;;;;;;;15.50;8.02;;;;;;;-2.39;100.00;100705.78;4906841;29;20047;-70
2023/12/05 01:00:00;;;;;;;15.77;8.15;;;;;;;-2.40;100.00;100701.53;4884414;29;20036;-70
2023/12/05 01:02:25;;;;;;;16.48;8.75;;;;;;;-2.37;100.00;100703.78;4884511;29;20103;-69
2023/12/05 01:04:51;;;;;;;16.52;8.80;;;;;;;-2.37;100.00;100701.16;4903360;29;20048;-70
2023/12/05 01:07:17;;;;;;;14.57;7.70;;;;;;;-2.38;100.00;100704.78;4888539;29;20040;-69
2023/12/05 01:09:44;;;;;;;14.55;8.23;;;;;;;-2.34;100.00;100711.31;4888985;29;20095;-69
2023/12/05 01:12:11;;;;;;;16.70;8.70;;;;;;;-2.32;100.00;100704.84;4887147;29;20036;-69
2023/12/05 01:14:36;;;;;;;15.98;7.80;;;;;;;-2.34;100.00;100696.38;4888905;29;20032;-69
2023/12/05 01:17:02;;;;;;;13.85;7.40;;;;;;;-2.31;100.00;100700.41;4871108;29;20036;-69
2023/12/05 01:19:45;;;;;;;15.00;8.63;;;;;;;-2.37;100.00;100696.75;5239898;23;20048;-75
2023/12/05 01:22:11;;;;;;;14.50;7.95;;;;;;;-2.37;100.00;100688.06;4875019;29;20065;-75
2023/12/05 01:24:37;;;;;;;16.40;8.40;;;;;;;-2.35;100.00;100683.44;4903882;29;20035;-76
2023/12/05 01:27:03;;;;;;;14.35;8.18;;;;;;;-2.32;100.00;100686.50;4908524;29;20789;-76
2023/12/05 01:29:29;;;;;;;13.95;7.57;;;;;;;-2.31;100.00;100687.31;4901664;29;20039;-75
2023/12/05 01:31:55;;;;;;;15.30;8.70;;;;;;;-2.30;100.00;100679.28;4879507;29;20039;-76
2023/12/05 01:34:20;;;;;;;14.07;7.13;;;;;;;-2.29;100.00;100677.47;4904181;29;20482;-77
2023/12/05 01:36:46;;;;;;;15.10;8.35;;;;;;;-2.31;100.00;100679.44;4886847;29;20055;-79
2023/12/05 01:39:17;;;;;;;13.55;7.53;;;;;;;-2.27;100.00;100680.69;4879241;29;20071;-76
2023/12/05 01:41:45;;;;;;;16.17;8.57;;;;;;;-2.26;100.00;100671.81;4876567;29;20028;-76
2023/12/05 01:44:11;;;;;;;12.68;6.95;;;;;;;-2.25;100.00;100686.56;4886786;29;20035;-75
2023/12/05 01:46:37;;;;;;;15.25;8.05;;;;;;;-2.24;100.00;100681.13;4868755;29;20055;-76
2023/12/05 01:49:07;;;;;;;13.88;8.25;;;;;;;-2.26;100.00;100677.06;4886429;29;20040;-76
2023/12/05 01:51:34;;;;;;;13.75;7.85;;;;;;;-2.23;100.00;100674.09;4881391;29;20282;-76
2023/12/05 01:54:00;;;;;;;;;;;;;;;-2.22;100.00;100679.16;4923983;29;20111;-76
2023/12/05 01:56:26;;;;;;;14.60;7.95;;;;;;;-2.20;100.00;100671.88;4908972;29;19922;-75
2023/12/05 01:58:52;;;;;;;16.13;8.23;;;;;;;-2.20;100.00;100676.34;4898287;29;20094;-75
2023/12/05 02:01:18;;;;;;;14.18;7.85;;;;;;;-2.20;100.00;100671.88;4894496;29;20065;-76
2023/12/05 02:03:47;;;;;;;15.13;7.82;;;;;;;-2.23;100.00;100674.09;4909576;29;20035;-76
2023/12/05 02:06:13;;;;;;;15.13;7.97;;;;;;;-2.22;100.00;100673.09;4909785;29;20043;-76
2023/12/05 02:08:40;;;;;;;16.27;8.18;;;;;;;-2.21;100.00;100669.47;4893502;29;20046;-76
2023/12/05 02:11:06;;;;;;;15.05;8.18;;;;;;;-2.19;100.00;100672.69;4869761;29;20038;-76
2023/12/05 02:13:31;;;;;;;13.10;7.47;;;;;;;-2.20;100.00;100673.72;4876448;29;20047;-76
2023/12/05 02:16:22;;;;;;;14.52;8.18;;;;;;;-2.20;100.00;100665.84;4886720;29;20043;-75
2023/12/05 02:19:02;;;;;;;15.60;8.10;;;;;;;-2.21;100.00;100664.22;4893917;29;20046;-75
2023/12/05 02:21:32;;;;;;;17.50;8.70;;;;;;;-2.19;100.00;100667.44;4887979;29;20180;-76
2023/12/05 02:24:38;;;;;;;13.98;7.75;;;;;;;-2.23;100.00;100660.97;4886111;29;20066;-76
2023/12/05 02:27:15;;;;;;;15.35;7.90;;;;;;;-2.21;100.00;100657.16;4878837;29;21016;-76
2023/12/05 02:29:50;;;;;;;14.25;8.27;;;;;;;-2.23;100.00;100653.09;4908808;29;20569;-76
2023/12/05 02:32:17;;;;;;;15.45;8.85;;;;;;;-2.23;100.00;100655.72;4903033;29;20032;-77
2023/12/05 02:34:43;;;;;;;16.33;9.00;;;;;;;-2.22;100.00;100652.09;4878842;29;20054;-76
2023/12/05 02:37:23;;;;;;;17.58;8.45;;;;;;;-2.25;100.00;100649.84;4891181;29;20032;-76
2023/12/05 02:40:00;;;;;;;16.65;8.95;;;;;;;-2.27;100.00;100646.59;4904323;29;20043;-77
2023/12/05 02:42:28;;;;;;;16.20;8.85;;;;;;;-2.25;100.00;100641.97;4895122;29;20554;-75
2023/12/05 02:44:56;;;;;;;16.27;9.30;;;;;;;-2.26;100.00;100640.34;4872486;29;20095;-76
2023/12/05 02:47:24;;;;;;;16.88;8.38;;;;;;;-2.27;100.00;100630.84;4882157;29;21024;-75
2023/12/05 02:49:50;;;;;;;16.80;9.20;;;;;;;-2.27;100.00;100628.22;4890654;29;20047;-76
2023/12/05 02:52:20;;;;;;;18.73;9.82;;;;;;;-2.28;100.00;100632.66;4923134;29;20055;-75
2023/12/05 02:54:45;;;;;;;16.50;9.23;;;;;;;-2.26;100.00;100632.47;4905767;28;20062;-75
2023/12/05 02:57:11;;;;;;;17.88;9.05;;;;;;;-2.27;100.00;100628.22;4878372;29;20039;-76
2023/12/05 02:59:37;;;;;;;15.93;8.98;;;;;;;-2.28;100.00;100629.25;4908174;29;20126;-74
2023/12/05 03:02:03;;;;;;;17.45;9.55;;;;;;;-2.27;100.00;100638.72;4889590;29;20032;-75
2023/12/05 03:04:30;;;;;;;17.67;9.57;;;;;;;-2.34;100.00;100627.38;4900926;29;20352;-76
2023/12/05 03:06:55;;;;;;;18.42;10.65;;;;;;;-2.27;100.00;100628.22;4907030;29;20042;-75
2023/12/05 03:09:21;;;;;;;17.88;9.25;;;;;;;-2.27;100.00;100633.47;4899445;29;20028;-76
2023/12/05 03:11:47;;;;;;;20.85;10.93;;;;;;;-2.29;100.00;100625.00;4885215;29;21343;-77
2023/12/05 03:14:13;;;;;;;18.45;10.13;;;;;;;-2.36;100.00;100618.88;4889858;29;20074;-76
2023/12/05 03:16:39;;;;;;;20.27;10.18;;;;;;;-2.29;100.00;100625.00;4878448;29;20039;-76
2023/12/05 03:19:05;;;;;;;20.67;10.40;;;;;;;-2.29;100.00;100614.50;4909748;29;20067;-76
2023/12/05 03:21:30;;;;;;;19.15;9.65;;;;;;;-2.32;100.00;100607.00;4903071;29;20057;-76
2023/12/05 03:23:56;;;;;;;21.13;10.82;;;;;;;-2.37;100.00;100606.75;4893042;29;20130;-76
2023/12/05 03:26:23;;;;;;;19.92;10.02;;;;;;;-2.37;100.00;100612.81;4893935;29;20123;-75
2023/12/05 03:28:49;;;;;;;17.38;10.55;;;;;;;-2.35;100.00;100615.25;4879404;29;20131;-77
2023/12/05 03:31:16;;;;;;;21.73;11.73;;;;;;;-2.36;100.00;100613.63;4910628;29;20050;-76
2023/12/05 03:33:41;;;;;;;20.65;10.15;;;;;;;-2.35;100.00;100610.00;4908641;29;20059;-75
2023/12/05 03:36:08;;;;;;;20.38;10.35;;;;;;;-2.41;100.00;100600.28;4904939;29;20043;-76
2023/12/05 03:38:34;;;;;;;;;;;;;;;-2.42;100.00;100606.50;4907693;29;20126;-76
2023/12/05 03:41:00;;;;;;;18.25;9.82;;;;;;;-2.41;100.00;100608.13;4926362;29;19918;-76
2023/12/05 03:43:25;;;;;;;18.85;10.05;;;;;;;-2.43;100.00;100600.47;4873357;29;20039;-75
2023/12/05 03:45:51;;;;;;;21.55;10.73;;;;;;;-2.44;100.00;100603.25;4902458;29;20051;-75
2023/12/05 03:48:16;;;;;;;18.83;9.85;;;;;;;-2.40;100.00;100615.00;4892268;29;20092;-75
2023/12/05 03:50:42;;;;;;;22.58;12.50;;;;;;;-2.41;100.00;100608.94;4910474;29;20043;-77
2023/12/05 03:53:08;;;;;;;22.63;10.63;;;;;;;-2.40;100.00;100609.75;4931925;29;20053;-76
2023/12/05 03:55:34;;;;;;;20.90;10.88;;;;;;;-2.47;100.00;100607.88;4897259;29;20489;-75
2023/12/05 03:58:05;;;;;;;;;;;;;;;-2.43;100.00;100612.75;4911679;29;20077;-76
2023/12/05 04:00:31;;;;;;;21.45;10.82;;;;;;;-2.45;100.00;100620.00;4895372;29;20396;-76
2023/12/05 04:02:57;;;;;;;24.55;11.82;;;;;;;-2.44;100.00;100617.16;4906146;29;20040;-76
2023/12/05 04:05:23;;;;;;;22.45;11.52;;;;;;;-2.47;100.00;100622.81;4893798;29;20054;-76
2023/12/05 04:07:48;;;;;;;24.25;12.13;;;;;;;-2.50;100.00;100621.38;4874033;29;20044;-76
2023/12/05 04:10:14;;;;;;;24.45;12.10;;;;;;;-2.50;100.00;100624.00;4894245;29;20405;-76
2023/12/05 04:12:40;;;;;;;20.77;12.07;;;;;;;-2.50;100.00;100623.19;4880020;29;20126;-76
2023/12/05 04:15:07;;;;;;;23.95;12.27;;;;;;;-2.51;100.00;100622.38;4926560;29;20055;-77
2023/12/05 04:17:34;;;;;;;22.10;11.45;;;;;;;-2.53;100.00;100628.78;4879954;29;20043;-76
2023/12/05 04:20:00;;;;;;;24.50;12.35;;;;;;;-2.56;100.00;100630.00;4895495;29;20501;-75
2023/12/05 04:22:26;;;;;;;24.65;13.43;;;;;;;-2.56;100.00;100631.78;4905304;29;20032;-76
2023/12/05 04:24:52;;;;;;;25.05;13.18;;;;;;;-2.60;100.00;100627.91;4905559;29;20087;-77
2023/12/05 04:27:18;;;;;;;26.75;12.75;;;;;;;-2.58;100.00;100625.91;4892510;29;20660;-76
2023/12/05 04:29:45;;;;;;;26.05;12.60;;;;;;;-2.62;100.00;100620.25;4922714;29;20028;-76
2023/12/05 04:32:11;;;;;;;25.90;11.48;;;;;;;-2.68;100.00;100623.59;4905430;29;20028;-76
2023/12/05 04:34:43;;;;;;;27.30;13.60;;;;;;;-2.64;100.00;100619.63;4909509;29;20055;-76
2023/12/05 04:37:08;;;;;;;29.17;14.00;;;;;;;-2.67;100.00;100622.59;4905602;29;20050;-77
2023/12/05 04:39:34;;;;;;;29.58;13.70;;;;;;;-2.66;100.00;100624.22;4897366;29;20036;-75
2023/12/05 04:42:00;;;;;;;25.60;12.65;;;;;;;-2.71;100.00;100621.34;4891009;29;20805;-76
2023/12/05 04:44:28;;;;;;;28.58;12.32;;;;;;;-2.76;100.00;100627.16;4911745;29;20062;-75
2023/12/05 04:46:54;;;;;;;24.77;13.70;;;;;;;-2.77;100.00;100624.72;4892497;29;20545;-75
2023/12/05 04:49:21;;;;;;;27.38;14.15;;;;;;;-2.77;100.00;100628.16;4897754;29;20042;-76
2023/12/05 04:51:47;;;;;;;28.92;13.77;;;;;;;-2.76;100.00;100618.47;4893499;29;20036;-76
2023/12/05 04:54:13;;;;;;;29.38;13.93;;;;;;;-2.76;100.00;100621.09;4896430;29;20042;-77
2023/12/05 04:56:38;;;;;;;26.92;13.05;;;;;;;-2.73;100.00;100618.09;4896879;29;20043;-76
2023/12/05 04:59:04;;;;;;;29.55;14.43;;;;;;;-2.71;100.00;100616.09;4882122;29;20042;-76
2023/12/05 05:01:29;;;;;;;32.22;14.13;;;;;;;-2.75;100.00;100612.25;4894546;29;20245;-76
2023/12/05 05:03:55;;;;;;;28.73;13.90;;;;;;;-2.76;100.00;100613.25;4878260;29;20044;-77
2023/12/05 05:06:21;;;;;;;27.75;13.55;;;;;;;-2.79;100.00;100613.59;4926808;29;20420;-76
2023/12/05 05:08:47;;;;;;;30.52;14.40;;;;;;;-2.78;100.00;100602.94;4912182;29;20520;-76
2023/12/05 05:11:12;;;;;;;29.65;14.75;;;;;;;-2.77;100.00;100614.25;4924500;29;20035;-76
2023/12/05 05:13:38;;;;;;;28.92;14.32;;;;;;;-2.78;100.00;100609.97;4904555;29;20046;-77
2023/12/05 05:16:06;;;;;;;29.67;15.10;;;;;;;-2.81;100.00;100616.41;4906328;29;20042;-76
2023/12/05 05:18:32;;;;;;;24.63;12.35;;;;;;;-2.78;100.00;100612.59;4890475;29;20699;-76
2023/12/05 05:20:58;;;;;;;31.05;14.68;;;;;;;-2.77;100.00;100614.25;4869319;29;20505;-77
2023/12/05 05:23:25;;;;;;;28.08;13.77;;;;;;;-2.74;100.00;100611.22;4909899;29;20040;-77
2023/12/05 05:25:51;;;;;;;27.77;13.63;;;;;;;-2.75;100.00;100604.38;4885883;29;20111;-76
2023/12/05 05:28:17;;;;;;;29.45;14.30;;;;;;;-2.74;100.00;100603.38;4909259;29;20035;-76
2023/12/05 05:30:43;;;;;;;29.23;14.55;;;;;;;-2.77;100.00;100598.50;4908608;29;20083;-77
2023/12/05 05:33:08;;;;;;;32.00;14.95;;;;;;;-2.75;100.00;100599.13;4905351;29;20788;-76
2023/12/05 05:35:34;;;;;;;27.10;14.02;;;;;;;-2.76;100.00;100597.50;4875352;29;20057;-76
2023/12/05 05:37:59;;;;;;;28.25;14.75;;;;;;;-2.74;100.00;100598.13;4892347;29;20568;-76
2023/12/05 05:40:27;;;;;;;28.15;13.85;;;;;;;-2.74;100.00;100592.88;4895258;29;20560;-77
2023/12/05 05:42:53;;;;;;;29.83;15.50;;;;;;;-2.73;100.00;100605.00;4893481;29;20036;-76
2023/12/05 05:45:19;;;;;;;28.95;13.27;;;;;;;-2.73;100.00;100602.38;4910244;29;20046;-77
2023/12/05 05:47:44;;;;;;;27.50;13.80;;;;;;;-2.77;100.00;100595.91;4898241;29;20107;-76
2023/12/05 05:50:11;;;;;;;30.05;14.70;;;;;;;-2.74;100.00;100600.75;4896729;29;20040;-76
2023/12/05 05:52:37;;;;;;;27.42;13.20;;;;;;;-2.74;100.00;100598.13;4892775;29;20040;-75
2023/12/05 05:55:04;;;;;;;29.52;13.60;;;;;;;-2.73;100.00;100596.31;4913640;29;20099;-77
2023/12/05 05:57:30;;;;;;;;;;;;;;;-2.75;100.00;100593.88;4889515;29;20062;-77
2023/12/05 05:59:55;;;;;;;28.80;13.82;;;;;;;-2.74;100.00;100600.75;4911527;29;19967;-77
2023/12/05 06:02:21;;;;;;;30.02;14.05;;;;;;;-2.75;100.00;100589.47;4892209;29;20079;-77
2023/12/05 06:04:47;;;;;;;30.05;13.45;;;;;;;-2.72;100.00;100588.25;4895434;28;20046;-78
2023/12/05 06:07:14;;;;;;;29.00;15.10;;;;;;;-2.71;100.00;100595.13;4903727;29;20036;-77
2023/12/05 06:09:39;;;;;;;24.90;13.80;;;;;;;-2.71;100.00;100583.81;4912027;29;20042;-75
2023/12/05 06:12:08;;;;;;;28.17;13.88;;;;;;;-2.69;100.00;100590.53;4890352;29;20044;-76
2023/12/05 06:14:35;;;;;;;32.47;14.30;;;;;;;-2.64;100.00;100589.94;4904481;29;20047;-76
2023/12/05 06:17:01;;;;;;;29.27;14.48;;;;;;;-2.64;100.00;100588.16;4895524;29;20040;-76
2023/12/05 06:19:27;;;;;;;29.42;14.55;;;;;;;-2.64;100.00;100595.19;4908941;29;20040;-77
2023/12/05 06:21:53;;;;;;;34.47;15.48;;;;;;;-2.64;100.00;100585.53;4909028;29;20059;-76
2023/12/05 06:24:18;;;;;;;28.70;14.43;;;;;;;-2.62;100.00;100588.78;4865664;29;20087;-76
2023/12/05 06:26:44;;;;;;;27.65;13.27;;;;;;;-2.64;100.00;100597.81;4890319;29;20044;-76
2023/12/05 06:29:10;;;;;;;30.02;14.45;;;;;;;-2.62;100.00;100594.03;4903679;29;20580;-75
2023/12/05 06:31:35;;;;;;;27.10;13.68;;;;;;;-2.61;100.00;100597.44;4907823;29;20028;-76
2023/12/05 06:34:01;;;;;;;27.40;14.50;;;;;;;-2.62;100.00;100599.28;4892954;29;20047;-76
2023/12/05 06:36:27;;;;;;;26.95;14.13;;;;;;;-2.60;100.00;100597.25;4909216;29;20087;-76
2023/12/05 06:38:53;;;;;;;28.67;14.65;;;;;;;-2.58;100.00;100597.88;4909079;29;20032;-75
2023/12/05 06:41:18;;;;;;;26.45;14.18;;;;;;;-2.58;100.00;100595.25;4925797;29;20067;-76
2023/12/05 06:43:44;;;;;;;28.88;14.75;;;;;;;-2.58;100.00;100590.00;4896101;29;20047;-76
2023/12/05 06:46:10;;;;;;;28.48;14.70;;;;;;;-2.59;100.00;100601.50;4910258;29;20090;-76
2023/12/05 06:48:35;;;;;;;30.35;15.40;;;;;;;-2.58;100.00;100597.88;4910279;29;20127;-76
2023/12/05 06:51:01;;;;;;;30.73;14.00;;;;;;;-2.58;100.00;100610.19;4909685;29;20110;-76
2023/12/05 06:53:27;;;;;;;28.63;14.70;;;;;;;-2.58;100.00;100597.88;4909580;29;20123;-76
2023/12/05 06:55:54;;;;;;;28.25;14.27;;;;;;;-2.58;100.00;100597.88;4898775;29;20111;-76
2023/12/05 06:58:21;;;;;;;29.33;14.23;;;;;;;-2.54;100.00;100606.19;4910263;29;20044;-75
2023/12/05 07:00:48;;;;;;;27.88;14.45;;;;;;;-2.55;100.00;100600.16;4913858;29;20039;-76
2023/12/05 07:03:14;;;;;;;;;;;;;;;-2.57;100.00;100602.16;4892065;29;20070;-76
2023/12/05 07:05:40;;;;;;;28.23;14.43;;;;;;;-2.54;100.00;100595.72;4914215;29;19918;-76
2023/12/05 07:08:06;;;;;;;32.83;14.00;;;;;;;-2.53;100.00;100606.00;4931715;29;20069;-76
2023/12/05 07:10:32;;;;;;;28.42;14.07;;;;;;;-2.55;100.00;100594.91;4898746;29;20122;-76
2023/12/05 07:12:58;;;;;;;31.90;14.73;;;;;;;-2.58;100.00;100594.44;4886911;29;20046;-76
2023/12/05 07:15:24;;;;;;;33.38;15.25;;;;;;;-2.56;100.00;100601.16;4907737;29;20031;-77
2023/12/05 07:17:49;;;;;;;29.67;14.57;;;;;;;-2.58;100.00;100602.31;4896234;29;20096;-77
2023/12/05 07:20:15;;;;;;;32.58;16.02;;;;;;;-2.56;100.00;100603.75;4880577;29;20685;-76
2023/12/05 07:22:43;;;;;;;31.65;16.23;;;;;;;-2.55;100.00;100605.38;4913636;29;20561;-76
2023/12/05 07:25:08;;;;;;;30.90;15.23;;;;;;;-2.55;100.00;100609.81;4910495;29;20509;-76
2023/12/05 07:27:35;;;;;;;30.15;15.32;;;;;;;-2.56;100.00;100603.75;4894242;29;20074;-76
2023/12/05 07:30:02;;;;;;;32.72;17.70;;;;;;;-2.53;100.00;100611.25;4909056;29;20040;-76
2023/12/05 07:32:27;;;;;;;29.08;14.77;;;;;;;-2.55;100.00;100613.25;4895127;29;20036;-75
2023/12/05 07:34:53;;;;;;;31.40;16.02;;;;;;;-2.54;100.00;100611.44;4898612;29;20071;-76
2023/12/05 07:37:19;;;;;;;29.25;14.82;;;;;;;-2.54;100.00;100612.25;4894097;29;20064;-77
2023/12/05 07:39:44;;;;;;;30.08;15.40;;;;;;;-2.53;100.00;100619.13;4929506;29;20035;-76
2023/12/05 07:42:11;;;;;;;30.85;15.88;;;;;;;-2.50;100.00;100620.56;4907337;29;20032;-76
2023/12/05 07:44:37;;;;;;;31.90;15.90;;;;;;;-2.55;100.00;100621.13;4887315;29;20047;-76
2023/12/05 07:47:03;;;;;;;28.70;16.25;;;;;;;-2.54;100.00;100617.50;4893277;29;20073;-77
2023/12/05 07:49:28;;;;;;;33.17;15.48;;;;;;;-2.51;100.00;100630.25;4894542;29;20032;-76
2023/12/05 07:51:55;;;;;;;29.67;15.13;;;;;;;-2.52;100.00;100635.66;4895115;29;20039;-78
2023/12/05 07:54:21;;;;;;;30.77;16.17;;;;;;;-2.52;100.00;100628.59;4895921;29;20047;-75
2023/12/05 07:56:47;;;;;;;30.90;16.02;;;;;;;-2.50;100.00;100629.25;4880989;29;20042;-75
2023/12/05 07:59:12;;;;;;;31.65;16.25;;;;;;;-2.48;100.00;100631.66;4912913;29;20046;-76
2023/12/05 08:01:42;;;;;;;33.10;16.20;;;;;;;-2.49;100.00;100632.69;4908648;29;20074;-76
2023/12/05 08:04:08;;;;;;;34.00;16.88;;;;;;;-2.53;100.00;100626.16;4890432;29;20047;-76
2023/12/05 08:06:34;;;;;;;30.02;15.57;;;;;;;-2.52;100.00;100625.97;4909652;29;20128;-76
2023/12/05 08:09:00;;;;;;;32.67;16.40;;;;;;;-2.53;100.00;100634.84;4911065;29;20039;-75
2023/12/05 08:11:26;;;;;;;34.33;17.15;;;;;;;-2.52;100.00;100636.47;4890214;29;20113;-76
2023/12/05 08:13:52;;;;;;;30.65;15.68;;;;;;;-2.51;100.00;100645.97;4895825;29;20039;-76
2023/12/05 08:16:19;;;;;;;34.20;17.10;;;;;;;-2.48;100.00;100642.97;4923887;29;20044;-76
2023/12/05 08:18:44;;;;;;;34.85;16.33;;;;;;;-2.47;100.00;100639.34;4923852;29;20098;-76
2023/12/05 08:21:10;;;;;;;35.25;17.88;;;;;;;-2.47;100.00;100638.53;4911226;29;20504;-76
2023/12/05 08:23:37;;;;;;;33.35;16.27;;;;;;;-2.47;100.00;100639.34;4926117;29;20047;-76
2023/12/05 08:26:04;;;;;;;32.35;16.23;;;;;;;-2.50;100.00;100644.16;4922940;29;20039;-76
2023/12/05 08:28:30;;;;;;;27.90;14.85;;;;;;;-2.48;100.00;100640.34;4892527;29;20417;-75
2023/12/05 08:30:55;;;;;;;35.78;17.55;;;;;;;-2.48;100.00;100634.28;4894341;29;20032;-75
2023/12/05 08:33:21;;;;;;;31.98;16.40;;;;;;;-2.44;100.00;100642.59;4887180;29;21240;-76
2023/12/05 08:35:47;;;;;;;34.17;17.02;;;;;;;-2.43;100.00;100639.81;4925657;29;20044;-76
2023/12/05 08:38:12;;;;;;;32.83;16.48;;;;;;;-2.44;100.00;100637.34;4891907;29;20811;-77
2023/12/05 08:40:38;;;;;;;32.55;17.45;;;;;;;-2.43;100.00;100639.81;4924491;29;20146;-75
2023/12/05 08:43:04;;;;;;;33.60;17.50;;;;;;;-2.41;100.00;100635.16;4894086;29;20133;-75
2023/12/05 08:45:31;;;;;;;34.65;16.10;;;;;;;-2.38;100.00;100633.97;4881371;29;20043;-76
2023/12/05 08:47:56;;;;;;;39.45;18.10;;;;;;;-2.32;100.00;100630.59;4895358;29;20058;-77
2023/12/05 08:50:22;;;;;;;33.88;16.58;;;;;;;-2.34;100.00;100627.38;4913152;29;20039;-76
2023/12/05 08:52:48;;;;;;;37.80;16.50;;;;;;;-2.35;100.00;100636.25;4919336;29;20051;-76
2023/12/05 08:55:14;;;;;;;36.30;17.02;;;;;;;-2.37;100.00;100632.97;4892875;29;20032;-76
2023/12/05 08:57:41;;;;;;;30.65;17.42;;;;;;;-2.36;100.00;100637.25;4912427;29;20031;-76
2023/12/05 09:00:07;;;;;;;;;;;;;;;-2.34;100.00;100637.84;4894179;29;20043;-77
2023/12/05 09:02:32;;;;;;;31.23;15.20;;;;;;;-2.33;100.00;100642.09;4929100;29;19927;-77
2023/12/05 09:05:03;;;;;;;33.33;16.48;;;;;;;-2.30;100.00;100645.19;4921290;29;20837;-77
2023/12/05 09:07:29;;;;;;;32.20;15.70;;;;;;;-2.30;100.00;100644.38;4887567;29;20055;-76
2023/12/05 09:09:54;;;;;;;36.13;15.88;;;;;;;-2.29;100.00;100651.22;4934264;29;20040;-76
2023/12/05 09:12:21;;;;;;;32.83;16.45;;;;;;;-2.25;100.00;100652.47;4923730;29;20607;-76
2023/12/05 09:14:47;;;;;;;30.38;15.85;;;;;;;-2.32;100.00;100646.34;4875294;29;20055;-76
2023/12/05 09:17:15;;;;;;;32.38;16.77;;;;;;;-2.28;100.00;100648.41;4901045;29;20031;-76
2023/12/05 09:19:41;;;;;;;32.78;15.25;;;;;;;-2.23;100.00;100656.53;4906868;29;20070;-75
2023/12/05 09:22:06;;;;;;;30.02;15.00;;;;;;;-2.24;100.00;100659.31;4907981;29;20063;-79
2023/12/05 09:24:32;;;;;;;32.97;16.00;;;;;;;-2.25;100.00;100662.94;4910204;29;20050;-79
2023/12/05 09:26:58;;;;;;;30.90;15.90;;;;;;;-2.22;100.00;100668.66;4907276;29;20584;-79
2023/12/05 09:29:24;;;;;;;30.70;15.25;;;;;;;-2.23;100.00;100660.97;4923154;29;20043;-78
2023/12/05 09:31:50;;;;;;;36.58;16.85;;;;;;;-2.21;100.00;100658.97;4878571;29;20031;-77
2023/12/05 09:34:15;;;;;;;32.83;16.35;;;;;;;-2.17;100.00;100664.63;4906537;29;20047;-77
2023/12/05 09:36:41;;;;;;;33.72;16.70;;;;;;;-2.21;100.00;100659.78;4909427;29;20063;-76
2023/12/05 09:39:07;;;;;;;34.65;16.88;;;;;;;-2.20;100.00;100661.41;4893312;29;20039;-75
2023/12/05 09:41:39;;;;;;;31.42;15.50;;;;;;;-2.21;100.00;100654.53;4900609;29;20461;-78
2023/12/05 09:44:06;;;;;;;32.53;16.33;;;;;;;-2.15;100.00;100655.59;4909731;29;20043;-76
2023/12/05 09:46:36;;;;;;;33.28;16.85;;;;;;;-2.13;100.00;100671.16;4915296;29;20168;-76
2023/12/05 09:49:06;;;;;;;35.15;17.98;;;;;;;-2.09;100.00;100656.66;4904660;29;20039;-77
2023/12/05 09:51:34;;;;;;;35.22;17.30;;;;;;;-2.02;100.00;100657.53;4881595;29;20046;-77
2023/12/05 09:54:00;;;;;;;37.53;17.27;;;;;;;-2.01;100.00;100654.72;4903225;29;20063;-77
2023/12/05 09:56:27;;;;;;;32.25;16.63;;;;;;;-1.98;100.00;100654.31;4891547;29;20119;-77
2023/12/05 09:58:54;;;;;;;31.50;16.40;;;;;;;-2.01;100.00;100654.72;4888675;29;20512;-77
2023/12/05 10:01:22;;;;;;;34.63;18.42;;;;;;;-1.97;100.00;100655.94;4890468;29;20019;-76
2023/12/05 10:03:53;;;;;;;36.10;17.15;;;;;;;-1.95;100.00;100653.94;4907807;29;20067;-76
2023/12/05 10:06:20;;;;;;;31.15;16.30;;;;;;;-1.96;100.00;100652.34;4906400;29;20075;-77
2023/12/05 10:08:50;;;;;;;31.98;17.13;;;;;;;-1.95;100.00;100653.94;4873420;29;20040;-77
2023/12/05 10:11:16;;;;;;;33.95;18.27;;;;;;;-1.95;100.00;100648.69;4876959;29;20064;-76
2023/12/05 10:13:43;;;;;;;34.35;17.95;;;;;;;-1.89;100.00;100646.31;4891939;29;20039;-74
2023/12/05 10:16:10;;;;;;;33.65;18.20;;;;;;;-1.86;100.00;100638.88;4890025;29;20069;-76
2023/12/05 10:18:37;;;;;;;35.45;18.02;;;;;;;-1.84;100.00;100638.66;4888872;29;20049;-76
2023/12/05 10:21:03;;;;;;;33.45;17.65;;;;;;;-1.84;100.00;100642.09;4916863;29;20034;-78
2023/12/05 10:23:30;;;;;;;31.73;15.75;;;;;;;-1.84;100.00;100633.41;4889576;29;20032;-77
2023/12/05 10:25:55;;;;;;;31.38;16.98;;;;;;;-1.90;100.00;100634.19;4885801;29;20059;-76
2023/12/05 10:28:21;;;;;;;36.72;18.35;;;;;;;-1.87;100.00;100634.63;4893512;29;20035;-75
2023/12/05 10:30:47;;;;;;;33.50;19.08;;;;;;;-1.83;100.00;100635.88;4890214;29;20039;-76
2023/12/05 10:33:14;;;;;;;36.53;19.10;;;;;;;-1.85;100.00;100632.63;4878358;29;20506;-76
2023/12/05 10:35:43;;;;;;;33.50;17.58;;;;;;;-1.85;100.00;100634.44;4898715;29;20062;-76
2023/12/05 10:38:12;;;;;;;33.75;17.88;;;;;;;-1.86;100.00;100635.44;4909205;29;20040;-76
2023/12/05 10:41:04;;;;;;;34.03;16.45;;;;;;;-1.88;100.00;100637.44;4912057;29;20489;-76
2023/12/05 10:43:30;;;;;;;37.28;17.88;;;;;;;-1.92;100.00;100632.56;4905827;29;20048;-78
2023/12/05 10:45:56;;;;;;;33.65;17.55;;;;;;;-1.85;100.00;100631.81;4890512;29;20122;-76
2023/12/05 10:48:25;;;;;;;34.17;17.98;;;;;;;-1.84;100.00;100628.97;4894002;29;20035;-76
2023/12/05 10:50:51;;;;;;;33.10;17.30;;;;;;;-1.80;100.00;100632.03;4909731;29;20040;-76
2023/12/05 10:53:18;;;;;;;31.38;16.95;;;;;;;-1.81;100.00;100633.88;4889891;29;20040;-77
2023/12/05 10:55:44;;;;;;;31.50;15.93;;;;;;;-1.80;100.00;100624.19;4910974;29;20039;-76
2023/12/05 10:58:11;;;;;;;35.40;16.52;;;;;;;-1.80;100.00;100629.44;4880657;29;20036;-76
2023/12/05 11:00:38;;;;;;;31.13;16.58;;;;;;;-1.81;100.00;100623.38;4904212;29;20095;-75
2023/12/05 11:03:04;;;;;;;32.95;16.10;;;;;;;-1.79;100.00;100620.53;4913835;29;20632;-76